Time;durP1;ratioP1;P1;durP2;ratioP2;P2;SDS_P1;SDS_P2;PMS_P1;PMS_P2;Temp;Humidity;BMP_temperature;BMP_pressure;BME280_temperature;BME280_humidity;BME280_pressure;Samples;Min_cycle;Max_cycle;Signal;HPM_P1;HPM_P2
2023/08/06 00:00:58;;;;;;;1.30;0.75;;;23.30;41.60;;;;;;6118482;29;20090;-76
2023/08/06 00:04:00;;;;;;;2.95;0.75;;;23.30;41.60;;;;;;6116669;29;20480;-77
2023/08/06 00:07:01;;;;;;;1.05;0.63;;;23.30;41.60;;;;;;6116403;29;20059;-75
2023/08/06 00:10:02;;;;;;;1.17;0.80;;;23.20;41.60;;;;;;6100821;29;20032;-76
2023/08/06 00:13:03;;;;;;;0.93;0.60;;;23.20;41.70;;;;;;6116751;29;20040;-76
2023/08/06 00:16:14;;;;;;;1.35;0.30;;;23.20;41.70;;;;;;6116153;29;20076;-76
2023/08/06 00:19:15;;;;;;;0.93;0.50;;;23.10;41.70;;;;;;6100744;29;20043;-77
2023/08/06 00:22:16;;;;;;;1.00;0.60;;;23.10;41.70;;;;;;6117797;29;20024;-76
2023/08/06 00:25:17;;;;;;;0.57;0.52;;;23.00;41.70;;;;;;6119937;29;20039;-76
2023/08/06 00:28:17;;;;;;;0.68;0.57;;;23.00;41.60;;;;;;6122765;29;20396;-77
2023/08/06 00:31:18;;;;;;;2.70;0.77;;;22.90;42.10;;;;;;6122813;29;20023;-75
2023/08/06 00:34:19;;;;;;;2.50;0.88;;;22.90;41.50;;;;;;6105381;29;20122;-77
2023/08/06 00:37:20;;;;;;;1.23;0.68;;;22.90;41.40;;;;;;6105535;29;20047;-77
2023/08/06 00:40:22;;;;;;;1.80;0.90;;;22.90;41.40;;;;;;6105851;29;20119;-77
2023/08/06 00:43:24;;;;;;;0.63;0.57;;;22.90;41.30;;;;;;6105493;29;20059;-76
2023/08/06 00:46:26;;;;;;;2.30;0.73;;;22.90;41.30;;;;;;6122482;29;20031;-76
2023/08/06 00:49:30;;;;;;;0.90;0.60;;;22.80;41.30;;;;;;6105740;29;20035;-78
2023/08/06 00:52:32;;;;;;;6.88;0.63;;;22.80;41.50;;;;;;6105971;29;20034;-76
2023/08/06 00:55:34;;;;;;;1.08;0.60;;;22.80;41.80;;;;;;6105244;29;20035;-75
2023/08/06 00:58:36;;;;;;;1.80;0.63;;;22.80;42.00;;;;;;6122932;29;20067;-75
2023/08/06 01:01:37;;;;;;;1.83;0.63;;;22.80;42.10;;;;;;6121449;29;20063;-76
2023/08/06 01:04:39;;;;;;;0.73;0.43;;;22.80;42.00;;;;;;6105882;29;20043;-76
2023/08/06 01:08:06;;;;;;;0.98;0.38;;;22.80;41.90;;;;;;6122797;29;20437;-76
2023/08/06 01:11:30;;;;;;;1.98;0.73;;;22.80;41.90;;;;;;6116817;29;20035;-76
2023/08/06 01:14:43;;;;;;;0.95;0.65;;;22.70;42.00;;;;;;6127924;29;20082;-76
2023/08/06 01:17:45;;;;;;;0.90;0.63;;;22.80;42.10;;;;;;6120369;29;20054;-76
2023/08/06 01:20:46;;;;;;;1.52;0.65;;;22.70;42.20;;;;;;6130496;29;20055;-75
2023/08/06 01:23:48;;;;;;;1.05;0.57;;;22.80;42.50;;;;;;6108283;29;20507;-77
2023/08/06 01:26:57;;;;;;;0.57;0.32;;;22.70;42.80;;;;;;6104544;29;20035;-76
2023/08/06 01:30:04;;;;;;;1.48;0.60;;;22.70;43.00;;;;;;6104710;29;20059;-75
2023/08/06 01:33:08;;;;;;;0.32;0.32;;;22.70;43.10;;;;;;6088484;29;20062;-76
2023/08/06 01:36:10;;;;;;;0.98;0.65;;;22.70;43.20;;;;;;6103595;29;20068;-76
2023/08/06 01:39:11;;;;;;;1.15;0.40;;;22.60;43.40;;;;;;6103949;29;20115;-75
2023/08/06 01:42:12;;;;;;;0.90;0.50;;;22.60;43.60;;;;;;6088169;29;20055;-77
2023/08/06 01:45:14;;;;;;;0.52;0.47;;;22.60;43.90;;;;;;6119304;29;20071;-76
2023/08/06 01:48:15;;;;;;;1.20;0.57;;;22.50;43.90;;;;;;6119730;29;20048;-77
2023/08/06 01:51:16;;;;;;;0.77;0.68;;;22.50;44.10;;;;;;6119391;29;20116;-75
2023/08/06 01:54:18;;;;;;;1.05;0.70;;;22.50;44.40;;;;;;6104042;29;20047;-76
2023/08/06 01:57:19;;;;;;;0.65;0.35;;;22.50;45.00;;;;;;6119086;29;20036;-75
2023/08/06 02:00:20;;;;;;;1.77;0.40;;;22.60;44.50;;;;;;6103425;29;20047;-77
2023/08/06 02:03:21;;;;;;;1.15;0.63;;;22.50;44.40;;;;;;6103546;29;20117;-77
2023/08/06 02:06:23;;;;;;;0.63;0.38;;;22.50;44.40;;;;;;6102943;29;20050;-75
2023/08/06 02:09:24;;;;;;;1.35;0.28;;;22.60;44.40;;;;;;6103410;29;20032;-76
2023/08/06 02:12:25;;;;;;;4.20;0.60;;;22.50;44.40;;;;;;6103271;29;20516;-76
2023/08/06 02:15:26;;;;;;;1.38;0.63;;;22.60;44.00;;;;;;6103144;29;20035;-77
2023/08/06 02:18:27;;;;;;;1.52;0.70;;;;;;;;;;6103186;29;20084;-76
2023/08/06 02:21:28;;;;;;;0.63;0.50;;;;;;;;;;6102571;29;20158;-76
2023/08/06 02:24:29;;;;;;;0.55;0.40;;;;;;;;;;6087273;29;20393;-75
2023/08/06 02:27:30;;;;;;;0.82;0.50;;;22.30;43.50;;;;;;6119757;29;20377;-76
2023/08/06 02:30:31;;;;;;;1.55;0.55;;;;;;;;;;6102744;29;20063;-75
2023/08/06 02:33:34;;;;;;;1.05;0.63;;;;;;;;;;6102727;29;20024;-77
2023/08/06 02:36:35;;;;;;;1.38;0.60;;;22.40;43.50;;;;;;6103086;29;20034;-76
2023/08/06 02:39:39;;;;;;;0.85;0.52;;;22.20;43.80;;;;;;6103061;29;20099;-76
2023/08/06 02:42:40;;;;;;;1.00;0.70;;;22.30;44.10;;;;;;6102800;29;20119;-77
2023/08/06 02:45:40;;;;;;;0.85;0.70;;;22.50;44.30;;;;;;6102564;29;20103;-76
2023/08/06 02:48:41;;;;;;;1.20;0.68;;;22.40;44.20;;;;;;6119793;29;20028;-76
2023/08/06 02:51:45;;;;;;;0.77;0.60;;;23.00;44.60;;;;;;6102700;29;20047;-77
2023/08/06 02:54:46;;;;;;;4.90;0.60;;;22.20;44.20;;;;;;6118690;29;20498;-77
2023/08/06 02:57:48;;;;;;;1.27;0.55;;;22.30;44.60;;;;;;6118672;29;20040;-75
2023/08/06 03:01:04;;;;;;;2.08;0.70;;;22.30;44.40;;;;;;6119165;29;20107;-77
2023/08/06 03:04:09;;;;;;;0.63;0.43;;;22.30;44.30;;;;;;6118080;29;20812;-76
2023/08/06 03:07:14;;;;;;;1.85;0.40;;;21.70;43.80;;;;;;6118153;29;20683;-76
2023/08/06 03:10:25;;;;;;;2.47;0.50;;;22.40;43.40;;;;;;6102506;29;20656;-76
2023/08/06 03:13:28;;;;;;;2.00;0.50;;;22.20;43.10;;;;;;6119770;29;20032;-75
2023/08/06 03:16:30;;;;;;;0.47;0.40;;;22.30;43.10;;;;;;6102337;29;20036;-75
2023/08/06 03:19:31;;;;;;;1.73;0.50;;;22.40;43.00;;;;;;6102326;29;20501;-75
2023/08/06 03:22:32;;;;;;;1.15;0.68;;;22.30;42.70;;;;;;6102455;29;20443;-76
2023/08/06 03:25:36;;;;;;;0.50;0.38;;;22.30;43.10;;;;;;6086183;29;20031;-77
2023/08/06 03:28:38;;;;;;;2.47;1.10;;;22.30;42.60;;;;;;6101765;29;20039;-76
2023/08/06 03:31:39;;;;;;;0.85;0.30;;;22.30;42.90;;;;;;6101732;29;20104;-76
2023/08/06 03:34:41;;;;;;;0.60;0.52;;;22.40;42.80;;;;;;6101980;29;20425;-77
2023/08/06 03:37:42;;;;;;;0.85;0.50;;;22.30;42.70;;;;;;6101732;29;20039;-77
2023/08/06 03:40:43;;;;;;;3.65;0.52;;;22.30;42.70;;;;;;6101497;29;20054;-75
2023/08/06 03:43:44;;;;;;;0.60;0.40;;;22.30;42.50;;;;;;6101731;29;20506;-76
2023/08/06 03:46:51;;;;;;;3.45;0.57;;;23.50;42.60;;;;;;6086557;29;20051;-76
2023/08/06 03:49:52;;;;;;;0.40;0.25;;;22.40;42.20;;;;;;6101486;29;20200;-77
2023/08/06 03:52:55;;;;;;;0.95;0.30;;;22.40;42.50;;;;;;6106210;29;20055;-77
2023/08/06 03:55:59;;;;;;;2.60;1.05;;;22.40;42.50;;;;;;6117085;29;20528;-76
2023/08/06 03:59:00;;;;;;;4.05;0.63;;;22.50;42.50;;;;;;6116421;29;20048;-77
2023/08/06 04:02:02;;;;;;;3.72;0.50;;;22.30;42.80;;;;;;6101142;29;20236;-77
2023/08/06 04:05:03;;;;;;;11.25;0.70;;;22.30;43.10;;;;;;6114047;29;20130;-76
2023/08/06 04:08:04;;;;;;;1.80;0.47;;;22.30;43.20;;;;;;6101135;29;20044;-76
2023/08/06 04:11:05;;;;;;;5.07;1.25;;;22.20;43.30;;;;;;6101174;29;20171;-75
2023/08/06 04:14:06;;;;;;;4.47;0.73;;;22.00;43.20;;;;;;6100803;29;20027;-75
2023/08/06 04:17:07;;;;;;;4.05;0.47;;;22.10;43.60;;;;;;6100404;29;20106;-75
2023/08/06 04:20:08;;;;;;;2.60;0.45;;;22.10;43.80;;;;;;6100486;29;20032;-76
2023/08/06 04:23:09;;;;;;;1.73;0.82;;;22.10;43.90;;;;;;6118366;29;20038;-76
2023/08/06 04:26:10;;;;;;;3.22;0.50;;;22.00;44.00;;;;;;6101079;29;20127;-76
2023/08/06 04:29:12;;;;;;;5.38;0.70;;;22.00;44.20;;;;;;6085055;29;20349;-77
2023/08/06 04:32:13;;;;;;;8.85;1.20;;;21.90;44.30;;;;;;6100880;29;20058;-75
2023/08/06 04:35:19;;;;;;;10.25;0.98;;;21.90;44.50;;;;;;6100912;29;20353;-76
2023/08/06 04:38:22;;;;;;;6.88;0.70;;;21.80;44.60;;;;;;6100304;29;20118;-76
2023/08/06 04:41:23;;;;;;;1.70;0.70;;;21.80;44.40;;;;;;6100986;29;20485;-77
2023/08/06 04:44:24;;;;;;;5.30;0.90;;;21.80;44.40;;;;;;6100286;29;20032;-77
2023/08/06 04:47:25;;;;;;;2.53;0.47;;;21.80;44.00;;;;;;6084970;29;20039;-77
2023/08/06 04:50:26;;;;;;;4.57;1.17;;;21.80;44.40;;;;;;6117554;29;20134;-76
2023/08/06 04:53:27;;;;;;;6.03;1.08;;;21.80;44.40;;;;;;6117860;29;20036;-76
2023/08/06 04:56:29;;;;;;;3.58;0.68;;;21.70;44.00;;;;;;6117305;29;20123;-76
2023/08/06 04:59:29;;;;;;;4.90;1.23;;;21.70;44.40;;;;;;6100288;29;20050;-76
2023/08/06 05:02:32;;;;;;;11.25;0.85;;;21.70;44.50;;;;;;6117436;29;20477;-77
2023/08/06 05:05:32;;;;;;;6.90;1.25;;;21.70;44.60;;;;;;6100475;29;20110;-76
2023/08/06 05:08:33;;;;;;;5.40;0.90;;;21.60;44.70;;;;;;6123308;29;20034;-75
2023/08/06 05:11:34;;;;;;;3.28;1.13;;;21.60;44.70;;;;;;6116019;29;20508;-76
2023/08/06 05:14:35;;;;;;;3.50;0.90;;;21.60;44.80;;;;;;6123447;29;20051;-75
2023/08/06 05:17:36;;;;;;;5.00;0.70;;;21.50;44.70;;;;;;6104449;29;20422;-75
2023/08/06 05:20:40;;;;;;;5.63;1.48;;;21.50;44.60;;;;;;6120759;29;20032;-75
2023/08/06 05:23:41;;;;;;;8.10;1.15;;;21.60;44.60;;;;;;6121388;29;20119;-77
2023/08/06 05:26:46;;;;;;;4.65;0.57;;;21.60;44.60;;;;;;6103561;29;20039;-77
2023/08/06 05:29:48;;;;;;;4.65;1.00;;;21.50;44.60;;;;;;6103949;29;20028;-77
2023/08/06 05:32:49;;;;;;;11.63;1.50;;;21.50;44.60;;;;;;6104194;29;20028;-76
2023/08/06 05:35:50;;;;;;;12.65;1.55;;;22.90;45.30;;;;;;6103666;29;20354;-75
2023/08/06 05:38:51;;;;;;;7.65;1.42;;;21.60;44.30;;;;;;6087912;29;20346;-77
2023/08/06 05:41:52;;;;;;;12.45;1.08;;;21.50;44.50;;;;;;6088352;29;20040;-76
2023/08/06 05:44:53;;;;;;;3.22;0.82;;;21.60;44.40;;;;;;6103744;29;20039;-76
2023/08/06 05:47:57;;;;;;;5.55;1.20;;;21.50;44.30;;;;;;6103800;29;20035;-77
2023/08/06 05:50:58;;;;;;;4.85;0.75;;;21.60;43.80;;;;;;6103823;29;20568;-76
2023/08/06 05:53:59;;;;;;;3.05;0.75;;;21.50;44.10;;;;;;6121276;29;20087;-76
2023/08/06 05:57:00;;;;;;;1.40;0.40;;;21.60;44.10;;;;;;6120738;29;20156;-77
2023/08/06 06:00:02;;;;;;;4.80;0.85;;;21.50;44.10;;;;;;6121136;29;20115;-77
2023/08/06 06:03:13;;;;;;;2.88;0.52;;;21.60;44.30;;;;;;6120924;29;20069;-75
2023/08/06 06:06:14;;;;;;;5.22;0.88;;;21.50;44.10;;;;;;6103497;29;20040;-75
2023/08/06 06:09:15;;;;;;;6.28;0.98;;;21.50;44.10;;;;;;6119100;29;20032;-77
2023/08/06 06:12:16;;;;;;;2.90;0.75;;;22.50;44.70;;;;;;6120920;29;20119;-76
2023/08/06 06:15:16;;;;;;;8.10;1.35;;;21.50;44.20;;;;;;6121266;29;20077;-77
2023/08/06 06:18:17;;;;;;;4.28;0.60;;;21.50;44.20;;;;;;6102537;29;20801;-78
2023/08/06 06:21:18;;;;;;;6.95;1.20;;;21.60;44.10;;;;;;6102523;29;20128;-76
2023/08/06 06:24:19;;;;;;;4.78;0.75;;;21.60;44.00;;;;;;6102520;29;20219;-76
2023/08/06 06:27:20;;;;;;;4.68;0.82;;;21.60;43.90;;;;;;6103059;29;20035;-75
2023/08/06 06:30:21;;;;;;;11.45;1.58;;;21.70;44.00;;;;;;6087510;29;20118;-75
2023/08/06 06:33:26;;;;;;;3.78;0.93;;;21.70;43.80;;;;;;6120072;29;20043;-76
2023/08/06 06:36:31;;;;;;;5.65;0.80;;;21.80;43.70;;;;;;6102840;29;20460;-77
2023/08/06 06:39:31;;;;;;;13.50;0.98;;;21.80;43.80;;;;;;6086956;29;20107;-78
2023/08/06 06:42:32;;;;;;;8.02;1.10;;;21.80;44.00;;;;;;6120815;29;20810;-78
2023/08/06 06:45:35;;;;;;;5.15;1.52;;;21.80;44.20;;;;;;6087019;29;20473;-76
2023/08/06 06:48:36;;;;;;;7.47;1.23;;;21.80;44.20;;;;;;6103042;29;20035;-77
2023/08/06 06:51:37;;;;;;;10.30;0.77;;;21.80;44.90;;;;;;6102989;29;20038;-75
2023/08/06 06:54:38;;;;;;;11.25;1.25;;;21.70;45.80;;;;;;6119798;29;20035;-77
2023/08/06 06:57:39;;;;;;;2.05;0.65;;;21.50;46.40;;;;;;6101985;29;20115;-76
2023/08/06 07:00:42;;;;;;;2.65;0.80;;;21.40;47.00;;;;;;6119374;29;20051;-76
2023/08/06 07:03:44;;;;;;;1.98;0.52;;;21.30;47.20;;;;;;6119758;29;20106;-77
2023/08/06 07:06:45;;;;;;;2.28;0.65;;;21.20;47.40;;;;;;6119519;29;20031;-77
2023/08/06 07:09:45;;;;;;;4.65;1.20;;;21.20;46.90;;;;;;6119414;29;20036;-76
2023/08/06 07:12:46;;;;;;;2.90;0.77;;;21.20;45.80;;;;;;6103564;29;20032;-76
2023/08/06 07:15:47;;;;;;;2.17;0.55;;;21.20;44.50;;;;;;6102505;29;20042;-76
2023/08/06 07:18:54;;;;;;;3.90;0.50;;;21.20;44.90;;;;;;6102240;29;20031;-75
2023/08/06 07:21:56;;;;;;;2.67;0.50;;;21.20;44.20;;;;;;6102791;29;20035;-76
2023/08/06 07:24:56;;;;;;;3.78;0.80;;;21.10;44.60;;;;;;6103070;29;20103;-76
2023/08/06 07:27:57;;;;;;;2.92;0.95;;;21.10;44.60;;;;;;6103525;29;20047;-77
2023/08/06 07:30:58;;;;;;;1.55;0.43;;;21.10;44.80;;;;;;6103912;29;20055;-78
2023/08/06 07:33:59;;;;;;;2.72;0.63;;;21.00;45.10;;;;;;6119638;29;20035;-77
2023/08/06 07:37:00;;;;;;;1.98;0.35;;;20.90;45.10;;;;;;6103603;29;20106;-77
2023/08/06 07:40:00;;;;;;;3.42;0.47;;;20.90;45.00;;;;;;6103617;29;20047;-76
2023/08/06 07:43:01;;;;;;;5.03;0.77;;;20.90;45.60;;;;;;6108247;29;20106;-77
2023/08/06 07:46:02;;;;;;;4.75;0.35;;;20.90;45.70;;;;;;6101818;29;20119;-76
2023/08/06 07:49:03;;;;;;;17.52;1.33;;;20.90;45.80;;;;;;6102896;29;20040;-77
2023/08/06 07:52:05;;;;;;;2.55;0.90;;;21.00;45.90;;;;;;6096847;29;20028;-75
2023/08/06 07:55:06;;;;;;;3.20;0.88;;;21.10;45.10;;;;;;6095213;29;20054;-75
2023/08/06 07:58:07;;;;;;;2.00;0.50;;;21.00;45.50;;;;;;6094924;29;20698;-76
2023/08/06 08:01:09;;;;;;;3.80;0.60;;;21.10;45.80;;;;;;6078019;29;20067;-75
2023/08/06 08:04:10;;;;;;;2.60;0.63;;;21.10;46.10;;;;;;6084251;29;20064;-76
2023/08/06 08:07:11;;;;;;;7.32;1.05;;;21.20;45.80;;;;;;6101535;29;20035;-76
2023/08/06 08:10:12;;;;;;;4.43;1.02;;;21.30;45.70;;;;;;6101157;29;20082;-77
2023/08/06 08:13:13;;;;;;;2.67;0.68;;;21.30;45.70;;;;;;6118924;29;20113;-77
2023/08/06 08:16:14;;;;;;;10.85;0.80;;;21.40;46.00;;;;;;6118859;29;20079;-77
2023/08/06 08:19:15;;;;;;;2.60;0.50;;;21.50;45.90;;;;;;6101847;29;20732;-77
2023/08/06 08:22:15;;;;;;;6.47;0.88;;;21.60;45.90;;;;;;6101443;29;20437;-76
2023/08/06 08:25:16;;;;;;;3.38;1.00;;;21.70;45.90;;;;;;6119080;29;20135;-76
2023/08/06 08:28:17;;;;;;;2.67;0.60;;;21.70;45.90;;;;;;6102641;29;20166;-76
2023/08/06 08:31:18;;;;;;;7.63;1.17;;;21.80;45.80;;;;;;6119355;29;20473;-75
2023/08/06 08:34:19;;;;;;;4.10;0.60;;;21.80;44.90;;;;;;6102364;29;20040;-77
2023/08/06 08:37:20;;;;;;;3.20;0.80;;;21.90;45.30;;;;;;6102261;29;20662;-76
2023/08/06 08:40:25;;;;;;;6.57;0.28;;;22.00;45.10;;;;;;6102012;29;20066;-78
2023/08/06 08:43:27;;;;;;;1.45;0.30;;;22.20;44.80;;;;;;6101885;29;20040;-76
2023/08/06 08:46:31;;;;;;;0.95;0.43;;;22.20;44.30;;;;;;6120677;29;20773;-77
2023/08/06 08:49:33;;;;;;;2.20;0.55;;;22.20;43.80;;;;;;6105693;29;20035;-76
2023/08/06 08:52:36;;;;;;;4.30;0.52;;;22.10;43.90;;;;;;6096911;29;20389;-76
2023/08/06 08:55:39;;;;;;;1.92;0.47;;;21.90;44.00;;;;;;6083038;29;20036;-77
2023/08/06 08:58:40;;;;;;;3.05;0.45;;;21.90;44.50;;;;;;6086615;29;20048;-76
2023/08/06 09:01:43;;;;;;;0.85;0.50;;;21.90;44.50;;;;;;6118846;29;20102;-77
2023/08/06 09:04:46;;;;;;;5.95;1.77;;;22.10;43.80;;;;;;6124710;29;20059;-75
2023/08/06 09:07:48;;;;;;;0.63;0.25;;;22.10;44.20;;;;;;6122833;29;20201;-78
2023/08/06 09:10:50;;;;;;;3.13;0.57;;;22.20;43.80;;;;;;6105640;29;20457;-75
2023/08/06 09:13:53;;;;;;;0.38;0.28;;;22.20;43.90;;;;;;6122320;29;20043;-75
2023/08/06 09:16:54;;;;;;;2.88;0.38;;;22.20;44.30;;;;;;6122345;29;20050;-77
2023/08/06 09:19:55;;;;;;;0.98;0.40;;;22.10;44.60;;;;;;6122015;29;20453;-77
2023/08/06 09:22:56;;;;;;;7.35;0.80;;;22.00;44.90;;;;;;6099857;29;20058;-77
2023/08/06 09:25:57;;;;;;;3.63;0.73;;;21.90;45.20;;;;;;6119929;29;20064;-77
2023/08/06 09:29:00;;;;;;;1.98;0.30;;;21.90;45.40;;;;;;6120585;29;20476;-75
2023/08/06 09:32:00;;;;;;;3.55;0.70;;;21.90;45.30;;;;;;6122000;29;20047;-78
2023/08/06 09:35:01;;;;;;;1.60;0.60;;;21.80;45.60;;;;;;6120998;29;20040;-76
2023/08/06 09:38:07;;;;;;;3.65;0.55;;;22.00;45.10;;;;;;6119967;29;20036;-76
2023/08/06 09:41:08;;;;;;;3.45;0.52;;;21.90;45.30;;;;;;6122300;29;20535;-76
2023/08/06 09:44:21;;;;;;;2.22;0.70;;;22.10;45.00;;;;;;6083092;29;20088;-77
2023/08/06 09:47:24;;;;;;;0.65;0.50;;;22.20;44.40;;;;;;6098142;29;20431;-77
2023/08/06 09:50:32;;;;;;;0.77;0.35;;;21.80;42.70;;;;;;6081139;29;20098;-77
2023/08/06 09:53:35;;;;;;;6.07;0.60;;;22.60;43.50;;;;;;6089942;29;20040;-77
2023/08/06 09:56:37;;;;;;;5.00;0.60;;;22.90;43.20;;;;;;6069605;29;20059;-76
2023/08/06 09:59:40;;;;;;;1.88;0.43;;;23.20;42.70;;;;;;6104802;29;20733;-77
2023/08/06 10:02:42;;;;;;;3.20;0.25;;;23.30;42.20;;;;;;6121850;29;20028;-74
2023/08/06 10:05:44;;;;;;;1.88;0.43;;;23.40;41.90;;;;;;6104213;29;20512;-78
2023/08/06 10:08:45;;;;;;;1.02;0.30;;;23.60;41.50;;;;;;6122160;29;20061;-76
2023/08/06 10:11:53;;;;;;;4.53;0.60;;;23.70;40.80;;;;;;6103668;29;20039;-77
2023/08/06 10:14:57;;;;;;;1.15;0.30;;;23.60;40.60;;;;;;6103631;29;20076;-77
2023/08/06 10:18:00;;;;;;;1.90;0.28;;;23.60;40.40;;;;;;6121212;29;20043;-76
2023/08/06 10:21:01;;;;;;;2.95;0.55;;;23.70;40.30;;;;;;6121623;29;20032;-77
2023/08/06 10:24:06;;;;;;;5.05;0.80;;;23.70;40.00;;;;;;6105013;29;20106;-74
2023/08/06 10:27:07;;;;;;;1.42;0.50;;;23.80;39.60;;;;;;6121822;29;20036;-76
2023/08/06 10:30:33;;;;;;;2.25;0.35;;;24.00;39.60;;;;;;6104665;29;20152;-76
2023/08/06 10:33:44;;;;;;;2.75;0.60;;;24.00;39.70;;;;;;6104032;29;20039;-75
2023/08/06 10:36:45;;;;;;;0.10;0.10;;;24.10;39.70;;;;;;6088310;29;20449;-77
2023/08/06 10:39:51;;;;;;;0.32;0.25;;;24.10;39.70;;;;;;6103601;29;20330;-76
2023/08/06 10:42:52;;;;;;;9.02;0.60;;;24.20;39.50;;;;;;6103887;29;20469;-77
2023/08/06 10:45:53;;;;;;;3.30;0.50;;;24.30;39.20;;;;;;6103291;29;20206;-76
2023/08/06 10:48:54;;;;;;;1.02;0.50;;;24.20;39.00;;;;;;6103219;29;20063;-75
2023/08/06 10:51:56;;;;;;;0.10;0.10;;;24.10;39.00;;;;;;6103152;29;20496;-76
2023/08/06 10:54:57;;;;;;;1.65;0.20;;;24.10;39.50;;;;;;6095302;29;20043;-78
2023/08/06 10:57:58;;;;;;;0.20;0.20;;;24.10;39.60;;;;;;6079440;29;20559;-77
2023/08/06 11:00:59;;;;;;;0.43;0.10;;;24.10;39.50;;;;;;6079755;29;20055;-75
2023/08/06 11:04:02;;;;;;;2.00;0.20;;;24.10;38.60;;;;;;6079960;29;20596;-78
2023/08/06 11:07:03;;;;;;;0.47;0.30;;;24.20;39.00;;;;;;6079320;29;20075;-76
2023/08/06 11:10:10;;;;;;;0.90;0.40;;;24.30;38.40;;;;;;6096288;29;20028;-76
2023/08/06 11:13:10;;;;;;;0.57;0.20;;;24.30;37.90;;;;;;6079811;29;20059;-76
2023/08/06 11:16:19;;;;;;;0.98;0.50;;;24.80;38.40;;;;;;6079103;29;20032;-76
2023/08/06 11:19:20;;;;;;;0.80;0.47;;;24.10;38.30;;;;;;6094920;29;20036;-76
2023/08/06 11:22:22;;;;;;;5.35;0.38;;;24.10;38.20;;;;;;6104412;29;20024;-76
2023/08/06 11:25:22;;;;;;;0.45;0.45;;;24.20;37.90;;;;;;6101531;29;20044;-76
2023/08/06 11:28:24;;;;;;;0.10;0.10;;;24.30;37.80;;;;;;6119734;29;20114;-77
2023/08/06 11:31:25;;;;;;;1.35;0.40;;;24.50;37.50;;;;;;6102419;29;20178;-78
2023/08/06 11:34:26;;;;;;;0.63;0.40;;;24.70;37.20;;;;;;6102610;29;20398;-76
2023/08/06 11:37:26;;;;;;;0.40;0.20;;;24.90;36.60;;;;;;6101942;29;20048;-77
2023/08/06 11:40:27;;;;;;;0.30;0.30;;;25.00;36.50;;;;;;6086924;29;20039;-76
2023/08/06 11:43:31;;;;;;;3.13;0.50;;;25.10;36.50;;;;;;6118887;29;20478;-77
2023/08/06 11:46:53;;;;;;;1.55;0.50;;;25.40;36.00;;;;;;6101669;29;20130;-78
2023/08/06 11:49:54;;;;;;;1.08;0.43;;;25.50;35.50;;;;;;6102424;29;20043;-75
2023/08/06 11:53:00;;;;;;;0.38;0.13;;;25.80;34.80;;;;;;6101243;29;20150;-76
2023/08/06 11:56:01;;;;;;;1.83;0.73;;;25.80;34.30;;;;;;6085324;29;20042;-76
2023/08/06 11:59:02;;;;;;;2.45;0.32;;;26.10;34.20;;;;;;6085768;29;20039;-77
2023/08/06 12:02:12;;;;;;;0.10;0.08;;;26.70;33.50;;;;;;6102429;29;20489;-77
2023/08/06 12:05:20;;;;;;;1.17;0.60;;;27.10;32.60;;;;;;6102427;29;20634;-76
2023/08/06 12:08:26;;;;;;;1.40;0.60;;;27.30;32.20;;;;;;6086624;29;20038;-76
2023/08/06 12:11:27;;;;;;;4.25;0.50;;;27.20;32.20;;;;;;6119293;29;20058;-77
2023/08/06 12:14:27;;;;;;;0.10;0.10;;;27.00;32.20;;;;;;6101637;29;20031;-77
2023/08/06 12:17:28;;;;;;;0.47;0.28;;;26.90;32.60;;;;;;6119025;29;20086;-75
2023/08/06 12:20:29;;;;;;;0.90;0.40;;;27.10;32.50;;;;;;6120523;29;20031;-76
2023/08/06 12:23:33;;;;;;;1.45;0.30;;;27.50;32.20;;;;;;6107461;29;20464;-77
2023/08/06 12:26:34;;;;;;;0.55;0.30;;;27.70;32.00;;;;;;6107057;29;20134;-77
